ダルエスサラーム の空港の天気 - METARとTAF

ジュリウス・ニエレレ国際空港(ダルエスサラーム) ( HTDA / DAR ) - タンザニア ダルエスサラーム
飛行場実況気象(Metar)
観測時間07/29 04:00 EAT (07/29 01:00 UTC)
風向・風速静穏 0m/s
視程10km以上
天気現象
少しの雲 雲底高度 300m
全天の8割程度の雲 雲底高度 2130m
気温21℃
湿度94%
気圧1018hPa
METARHTDA 290100Z 00000KT 9999 FEW010 BKN070 21/20 Q1018 NOSIG
過去の天気等 Google飛行場航空写真 Wunderground天気予報

過去48時間のMETAR

飛行場予報(TAF)
発表時間: 7/29 02:00 EAT (7/28 23:00 UTC)
予報対象時間: 29日3時 EAT ~ 30日9時 EAT
風向・風速南西 3m/s
視程10km以上
全天の4割程度の雲 雲底高度 340m
29日10時 EAT ~ 29日13時 EAT に徐々に
風向・風速南 8m/s
全天の8割程度の雲 雲底高度 610m
TAF HTDA 282300Z 2900/3006 22005KT 9999 SCT011
BECMG 2907/2910 17015KT BKN020